This is the latest recevied weather packets stored in our database for station/object E22ZMG-3. If no packets are shown the sender has not sent any weather packets the latest 10 day(s).
| Time | Temp. | Humidity | Pressure | Rain* | Wind** | Luminosity | Snow |
|---|---|---|---|---|---|---|---|
| 1777490912 | 32.22° C | 53% | 975 hPa | - | - | 0 W/m² | - |
| 1777490288 | 31.11° C | 56% | 975 hPa | - | - | 0 W/m² | - |
| 1777489664 | 30.56° C | 57% | 975 hPa | - | - | 0 W/m² | - |
| 1777489039 | 31.67° C | 54% | 975 hPa | - | - | 0 W/m² | - |
| 1777488414 | 31.67° C | 54% | 975 hPa | - | - | 0 W/m² | - |
| 1777487789 | 32.22° C | 54% | 976 hPa | - | - | 0 W/m² | - |
| 1777487165 | 31.11° C | 56% | 976 hPa | - | - | 0 W/m² | - |
| 1777486541 | 30.56° C | 57% | 976 hPa | - | - | 0 W/m² | - |
| 1777485916 | 30.56° C | 57% | 977 hPa | - | - | 0 W/m² | - |
| 1777485292 | 32.22° C | 52% | 977 hPa | - | - | 0 W/m² | - |
| 1777484666 | 31.67° C | 55% | 977 hPa | - | - | 0 W/m² | - |
| 1777484042 | 32.22° C | 53% | 977 hPa | - | - | 0 W/m² | - |
| 1777483418 | 32.22° C | 53% | 977 hPa | - | - | 0 W/m² | - |
| 1777482793 | 31.67° C | 54% | 977 hPa | - | - | 0 W/m² | - |
| 1777482169 | 32.78° C | 52% | 977 hPa | - | - | 0 W/m² | - |
| 1777481545 | 32.22° C | 52% | 977 hPa | - | - | 0 W/m² | - |
| 1777480920 | 32.22° C | 52% | 977 hPa | - | - | 0 W/m² | - |
| 1777480295 | 32.78° C | 50% | 977 hPa | - | - | 0 W/m² | - |
| 1777479671 | 31.67° C | 53% | 977 hPa | - | - | 0 W/m² | - |
| 1777479045 | 32.22° C | 51% | 977 hPa | - | - | 0 W/m² | - |
| 1777478420 | 33.33° C | 48% | 977 hPa | - | - | 0 W/m² | - |
| 1777477796 | 32.78° C | 49% | 977 hPa | - | - | 0 W/m² | - |
| 1777477172 | 32.78° C | 49% | 977 hPa | - | - | 0 W/m² | - |
| 1777476548 | 32.22° C | 50% | 976 hPa | - | - | 0 W/m² | - |
| 1777475924 | 33.33° C | 48% | 976 hPa | - | - | 0 W/m² | - |
* Rain since midnight (hover to see other rain measurements)
** Current wind speed in m/s (hover to see current wind gust speed)